createdAt,value
2023-03-01T00:01:10.232Z,154.80
2023-03-01T00:03:37.726Z,129.70
2023-03-01T00:06:05.348Z,123.90
2023-03-01T00:08:33.817Z,122.50
2023-03-01T00:11:01.416Z,118.80
2023-03-01T00:13:29.062Z,111.20
2023-03-01T00:15:56.516Z,113.70
2023-03-01T00:18:23.960Z,103.70
2023-03-01T00:20:52.231Z,107.70
2023-03-01T00:23:19.688Z,107.00
2023-03-01T00:25:47.256Z,97.10
2023-03-01T00:28:14.777Z,94.90
2023-03-01T00:30:42.269Z,103.20
2023-03-01T00:33:09.758Z,96.20
2023-03-01T00:35:37.254Z,99.30
2023-03-01T00:38:04.936Z,100.20
2023-03-01T00:40:32.463Z,82.50
2023-03-01T00:42:59.968Z,78.80
2023-03-01T00:45:28.000Z,90.30
2023-03-01T00:47:55.586Z,88.40
2023-03-01T00:50:23.142Z,114.80
2023-03-01T00:52:50.613Z,115.20
2023-03-01T00:55:18.135Z,111.00
2023-03-01T00:57:45.647Z,101.80
2023-03-01T01:00:13.115Z,93.30
2023-03-01T01:02:40.569Z,83.60
2023-03-01T01:05:08.344Z,73.50
2023-03-01T01:07:35.823Z,49.60
2023-03-01T01:10:03.371Z,79.80
2023-03-01T01:12:30.926Z,82.40
2023-03-01T01:14:58.379Z,73.20
2023-03-01T01:17:25.921Z,84.80
2023-03-01T01:19:53.392Z,83.70
2023-03-01T01:22:20.816Z,88.80
2023-03-01T01:24:48.261Z,95.00
2023-03-01T01:27:15.942Z,105.80
2023-03-01T01:29:43.546Z,105.50
2023-03-01T01:32:11.050Z,104.80
2023-03-01T01:34:38.630Z,91.30
2023-03-01T01:37:08.808Z,91.50
2023-03-01T01:39:36.499Z,91.10
2023-03-01T01:42:03.996Z,84.80
2023-03-01T01:44:31.546Z,96.80
2023-03-01T01:46:59.024Z,90.70
2023-03-01T01:49:26.643Z,97.10
2023-03-01T01:51:54.180Z,100.10
2023-03-01T01:54:21.680Z,91.50
2023-03-01T01:56:49.184Z,89.10
2023-03-01T01:59:16.784Z,80.40
2023-03-01T02:01:44.225Z,85.80
2023-03-01T02:04:11.835Z,75.40
2023-03-01T02:06:39.266Z,70.90
2023-03-01T02:09:06.748Z,76.60
2023-03-01T02:11:34.701Z,73.30
2023-03-01T02:14:02.360Z,68.70
2023-03-01T02:16:30.362Z,72.80
2023-03-01T02:18:58.110Z,62.70
2023-03-01T02:21:25.543Z,72.50
2023-03-01T02:23:53.008Z,69.90
2023-03-01T02:26:20.545Z,70.00
2023-03-01T02:28:48.596Z,70.60
2023-03-01T02:31:54.859Z,71.80
2023-03-01T02:34:22.327Z,66.60
2023-03-01T02:36:49.780Z,80.90
2023-03-01T02:39:20.044Z,74.20
2023-03-01T02:41:47.980Z,79.90
2023-03-01T02:44:15.429Z,74.10
2023-03-01T02:46:43.189Z,71.30
2023-03-01T02:49:10.649Z,71.00
2023-03-01T02:51:38.083Z,74.20
2023-03-01T02:54:05.741Z,71.50
2023-03-01T02:56:33.166Z,73.60
2023-03-01T02:59:01.685Z,71.60
2023-03-01T03:01:38.525Z,75.60
2023-03-01T03:04:06.052Z,72.40
2023-03-01T03:06:33.755Z,81.60
2023-03-01T03:09:01.302Z,67.40
2023-03-01T03:11:28.798Z,76.40
2023-03-01T03:13:56.980Z,79.10
2023-03-01T03:16:24.678Z,79.80
2023-03-01T03:18:52.207Z,76.40
2023-03-01T03:21:19.680Z,78.30
2023-03-01T03:23:47.241Z,74.60
2023-03-01T03:26:15.987Z,82.90
2023-03-01T03:28:43.430Z,67.10
2023-03-01T03:31:10.946Z,66.00
2023-03-01T03:33:38.539Z,74.40
2023-03-01T03:36:06.045Z,67.20
2023-03-01T03:38:33.562Z,62.10
2023-03-01T03:41:04.049Z,59.80
2023-03-01T03:43:31.674Z,68.80
2023-03-01T03:45:59.305Z,72.20
2023-03-01T03:48:26.855Z,66.70
2023-03-01T03:50:54.401Z,67.50
2023-03-01T03:53:22.076Z,79.50
2023-03-01T03:55:52.769Z,79.90
2023-03-01T03:58:20.884Z,88.50
2023-03-01T04:00:48.543Z,90.50
2023-03-01T04:03:16.569Z,83.70
2023-03-01T04:05:44.008Z,81.00
2023-03-01T04:08:11.477Z,75.00
2023-03-01T04:10:38.976Z,84.80
2023-03-01T04:13:06.831Z,87.50
2023-03-01T04:15:34.391Z,85.60
2023-03-01T04:18:01.893Z,79.50
2023-03-01T04:20:29.442Z,83.20
2023-03-01T04:22:56.961Z,77.10
2023-03-01T04:25:24.454Z,80.20
2023-03-01T04:27:51.915Z,71.80
2023-03-01T04:30:19.386Z,81.10
2023-03-01T04:32:46.827Z,79.00
2023-03-01T04:35:14.271Z,73.30
2023-03-01T04:37:42.717Z,70.50
2023-03-01T04:40:17.299Z,74.10
2023-03-01T04:42:44.869Z,80.10
2023-03-01T04:45:14.213Z,72.70
2023-03-01T04:47:41.787Z,68.80
2023-03-01T04:50:09.380Z,65.30
2023-03-01T04:52:36.854Z,66.50
2023-03-01T04:55:04.542Z,63.40
2023-03-01T04:57:32.090Z,72.70
2023-03-01T04:59:59.715Z,63.90
2023-03-01T05:02:27.223Z,73.00
2023-03-01T05:04:58.612Z,59.90
2023-03-01T05:07:27.322Z,64.80
2023-03-01T05:09:55.440Z,67.60
2023-03-01T05:12:22.996Z,47.20
2023-03-01T05:14:52.360Z,76.40
2023-03-01T05:17:19.805Z,80.50
2023-03-01T05:19:47.319Z,82.30
2023-03-01T05:22:14.796Z,74.40
2023-03-01T05:24:42.246Z,71.30
2023-03-01T05:27:10.170Z,63.60
2023-03-01T05:29:37.609Z,65.10
2023-03-01T05:32:05.213Z,72.50
2023-03-01T05:34:32.748Z,65.30
2023-03-01T05:37:00.216Z,66.70
2023-03-01T05:39:27.708Z,85.50
2023-03-01T05:41:55.268Z,90.00
2023-03-01T05:44:22.749Z,81.40
2023-03-01T05:46:50.498Z,82.10
2023-03-01T05:49:18.022Z,84.00
2023-03-01T05:51:45.457Z,88.20
2023-03-01T05:54:12.960Z,92.50
2023-03-01T05:56:40.865Z,92.10
2023-03-01T05:59:08.297Z,91.70
2023-03-01T06:01:35.802Z,91.20
2023-03-01T06:04:03.474Z,92.00
2023-03-01T06:06:31.368Z,89.80
2023-03-01T06:08:59.360Z,86.90
2023-03-01T06:11:27.090Z,92.80
2023-03-01T06:13:54.548Z,80.50
2023-03-01T06:16:22.001Z,126.20
2023-03-01T06:18:49.484Z,111.10
2023-03-01T06:21:16.975Z,97.40
2023-03-01T06:23:44.438Z,93.20
2023-03-01T06:26:11.930Z,95.50
2023-03-01T06:28:39.400Z,68.60
2023-03-01T06:31:09.833Z,103.20
2023-03-01T06:33:37.571Z,73.60
2023-03-01T06:36:05.290Z,48.50
2023-03-01T06:38:32.868Z,59.00
2023-03-01T06:41:00.554Z,80.20
2023-03-01T06:43:28.011Z,94.60
2023-03-01T06:45:55.454Z,89.50
2023-03-01T06:48:23.166Z,86.70
2023-03-01T06:50:50.730Z,88.10
2023-03-01T06:53:18.318Z,86.10
2023-03-01T06:55:46.120Z,68.70
2023-03-01T06:58:14.618Z,77.00
2023-03-01T07:00:44.026Z,64.70
2023-03-01T07:03:11.566Z,80.10
2023-03-01T07:05:39.094Z,71.90
2023-03-01T07:08:06.570Z,80.80
2023-03-01T07:10:34.107Z,80.80
2023-03-01T07:13:01.834Z,74.40
2023-03-01T07:15:29.321Z,72.80
2023-03-01T07:17:56.819Z,76.30
2023-03-01T07:20:26.195Z,71.70
2023-03-01T07:22:53.792Z,71.10
2023-03-01T07:25:21.382Z,74.80
2023-03-01T07:27:48.898Z,66.20
2023-03-01T07:30:16.368Z,66.30
2023-03-01T07:32:43.977Z,60.40
2023-03-01T07:35:11.631Z,60.70
2023-03-01T07:37:39.081Z,56.10
2023-03-01T07:40:06.788Z,67.20
2023-03-01T07:42:34.284Z,68.60
2023-03-01T07:45:01.797Z,49.80
2023-03-01T07:47:29.413Z,51.90
2023-03-01T07:49:56.979Z,55.30
2023-03-01T07:52:24.444Z,51.50
2023-03-01T07:54:51.982Z,33.10
2023-03-01T07:57:19.806Z,61.30
2023-03-01T07:59:47.415Z,39.30
2023-03-01T08:02:16.139Z,41.10
2023-03-01T08:04:43.887Z,46.20
2023-03-01T08:07:11.351Z,64.40
2023-03-01T08:09:39.272Z,55.20
2023-03-01T08:12:06.770Z,67.90
2023-03-01T08:14:34.242Z,89.20
2023-03-01T08:17:04.016Z,33.50
2023-03-01T08:19:31.646Z,68.30
2023-03-01T08:22:00.773Z,69.30
2023-03-01T08:24:28.395Z,48.40
2023-03-01T08:26:55.996Z,63.70
2023-03-01T08:29:23.476Z,41.30
2023-03-01T08:31:51.105Z,59.10
2023-03-01T08:34:18.632Z,43.60
2023-03-01T08:36:46.085Z,70.30
2023-03-01T08:39:13.631Z,54.90
2023-03-01T08:41:41.250Z,71.70
2023-03-01T08:44:08.704Z,55.90
2023-03-01T08:46:37.049Z,59.40
2023-03-01T08:49:04.522Z,59.00
2023-03-01T08:51:37.501Z,52.30
2023-03-01T08:54:04.928Z,32.20
2023-03-01T08:56:32.661Z,44.20
2023-03-01T08:59:00.522Z,48.50
2023-03-01T09:01:28.097Z,47.50
2023-03-01T09:03:55.585Z,40.60
2023-03-01T09:06:23.121Z,46.00
2023-03-01T09:08:50.607Z,54.00
2023-03-01T09:11:18.255Z,40.40
2023-03-01T09:13:46.081Z,51.80
2023-03-01T09:16:14.093Z,38.80
2023-03-01T09:18:41.699Z,49.20
2023-03-01T09:21:09.313Z,55.90
2023-03-01T09:23:40.145Z,51.70
2023-03-01T09:26:07.660Z,50.30
2023-03-01T09:28:35.150Z,56.00
2023-03-01T09:31:05.746Z,61.40
2023-03-01T09:33:33.328Z,43.30
2023-03-01T09:36:01.011Z,50.60
2023-03-01T09:38:28.661Z,48.10
2023-03-01T09:40:56.229Z,43.20
2023-03-01T09:43:23.750Z,51.60
2023-03-01T09:45:51.233Z,48.70
2023-03-01T09:48:18.880Z,42.40
2023-03-01T09:50:47.811Z,32.80
2023-03-01T09:53:15.339Z,38.80
2023-03-01T09:55:42.855Z,44.90
2023-03-01T09:58:10.474Z,49.00
2023-03-01T10:00:37.979Z,49.70
2023-03-01T10:03:05.478Z,42.80
2023-03-01T10:05:33.212Z,44.90
2023-03-01T10:08:00.669Z,48.60
2023-03-01T10:10:28.391Z,38.60
2023-03-01T10:12:56.158Z,43.60
2023-03-01T10:15:23.797Z,46.50
2023-03-01T10:17:51.277Z,46.30
2023-03-01T10:20:19.034Z,43.40
2023-03-01T10:22:51.482Z,38.60
2023-03-01T10:25:19.887Z,35.60
2023-03-01T10:27:47.694Z,33.00
2023-03-01T10:30:17.184Z,33.40
2023-03-01T10:32:44.745Z,37.10
2023-03-01T10:35:12.293Z,38.30
2023-03-01T10:37:40.647Z,34.50
2023-03-01T10:40:09.281Z,29.20
2023-03-01T10:42:37.655Z,32.10
2023-03-01T10:45:05.200Z,32.60
2023-03-01T10:47:32.805Z,29.80
2023-03-01T10:50:00.497Z,31.40
2023-03-01T10:52:28.289Z,34.60
2023-03-01T10:54:55.990Z,29.40
2023-03-01T10:57:23.451Z,28.20
2023-03-01T10:59:51.496Z,29.50
2023-03-01T11:02:25.067Z,33.70
2023-03-01T11:04:53.376Z,28.00
2023-03-01T11:07:20.882Z,26.00
2023-03-01T11:09:48.495Z,24.50
2023-03-01T11:12:16.416Z,25.00
2023-03-01T11:14:44.138Z,27.80
2023-03-01T11:17:11.611Z,26.00
2023-03-01T11:19:39.230Z,27.70
2023-03-01T11:22:06.952Z,28.50
2023-03-01T11:24:34.451Z,27.30
2023-03-01T11:27:04.727Z,18.20
2023-03-01T11:29:40.045Z,24.80
2023-03-01T11:32:14.440Z,23.50
2023-03-01T11:34:42.169Z,22.80
2023-03-01T11:37:09.720Z,24.30
2023-03-01T11:39:37.171Z,21.20
2023-03-01T11:42:18.013Z,32.00
2023-03-01T11:44:46.695Z,26.10
2023-03-01T11:47:14.469Z,28.60
2023-03-01T11:49:42.010Z,26.10
2023-03-01T11:52:09.568Z,16.40
2023-03-01T11:54:37.108Z,26.70
2023-03-01T11:57:04.843Z,25.70
2023-03-01T11:59:32.391Z,26.00
2023-03-01T12:01:59.965Z,21.80
2023-03-01T12:04:27.491Z,26.90
2023-03-01T12:06:56.715Z,26.80
2023-03-01T12:09:25.086Z,22.00
2023-03-01T12:11:52.592Z,15.20
2023-03-01T12:14:20.036Z,17.90
2023-03-01T12:16:48.732Z,21.60
2023-03-01T12:19:16.294Z,23.40
2023-03-01T12:21:43.738Z,22.10
2023-03-01T12:24:11.268Z,23.00
2023-03-01T12:26:38.741Z,19.60
2023-03-01T12:29:06.378Z,21.30
2023-03-01T12:31:34.300Z,20.50
2023-03-01T12:34:02.250Z,20.50
2023-03-01T12:36:30.235Z,22.30
2023-03-01T12:38:57.978Z,16.20
2023-03-01T12:41:25.724Z,18.90
2023-03-01T12:43:53.223Z,22.00
2023-03-01T12:46:20.704Z,20.30
2023-03-01T12:48:48.204Z,18.90
2023-03-01T12:51:15.696Z,17.80
2023-03-01T12:53:43.231Z,19.90
2023-03-01T12:56:10.931Z,22.40
2023-03-01T12:58:49.128Z,15.90
2023-03-01T13:01:17.685Z,16.60
2023-03-01T13:03:45.305Z,18.60
2023-03-01T13:06:12.832Z,15.60
2023-03-01T13:08:40.402Z,20.70
2023-03-01T13:11:07.952Z,20.60
2023-03-01T13:13:35.531Z,16.20
2023-03-01T13:16:03.116Z,16.10
2023-03-01T13:18:30.828Z,21.60
2023-03-01T13:20:58.598Z,21.10
2023-03-01T13:23:26.151Z,21.40
2023-03-01T13:25:53.589Z,19.30
2023-03-01T13:28:21.025Z,18.90
2023-03-01T13:30:48.756Z,23.30
2023-03-01T13:33:16.277Z,19.60
2023-03-01T13:35:43.835Z,15.10
2023-03-01T13:38:11.494Z,18.90
2023-03-01T13:40:38.946Z,17.40
2023-03-01T13:43:06.541Z,15.10
2023-03-01T13:45:34.438Z,16.30
2023-03-01T13:48:05.832Z,17.10
2023-03-01T13:50:33.626Z,17.60
2023-03-01T13:53:01.143Z,20.80
2023-03-01T13:55:28.663Z,18.30
2023-03-01T13:57:56.355Z,19.10
2023-03-01T14:00:24.420Z,18.00
2023-03-01T14:02:56.063Z,14.10
2023-03-01T14:05:29.965Z,15.50
2023-03-01T14:07:57.465Z,20.60
2023-03-01T14:10:24.997Z,13.50
2023-03-01T14:12:52.572Z,18.00
2023-03-01T14:15:20.317Z,17.30
2023-03-01T14:17:47.777Z,16.20
2023-03-01T14:20:15.429Z,17.90
2023-03-01T14:22:43.603Z,15.50
2023-03-01T14:25:11.033Z,14.90
2023-03-01T14:27:40.600Z,21.30
2023-03-01T14:30:08.093Z,41.80
2023-03-01T14:32:35.683Z,20.40
2023-03-01T14:35:03.286Z,20.00
2023-03-01T14:37:30.998Z,24.30
2023-03-01T14:39:58.566Z,19.30
2023-03-01T14:42:27.012Z,21.80
2023-03-01T14:44:54.486Z,22.10
2023-03-01T14:47:23.801Z,24.20
2023-03-01T14:49:51.455Z,20.50
2023-03-01T14:52:19.380Z,21.40
2023-03-01T14:54:46.900Z,24.90
2023-03-01T14:57:14.526Z,27.50
2023-03-01T14:59:45.152Z,23.00
2023-03-01T15:02:12.621Z,24.00
2023-03-01T15:04:40.270Z,25.10
2023-03-01T15:07:07.710Z,21.90
2023-03-01T15:09:35.205Z,50.20
2023-03-01T15:12:02.711Z,33.20
2023-03-01T15:14:30.342Z,22.00
2023-03-01T15:16:57.842Z,22.10
2023-03-01T15:19:28.234Z,24.00
2023-03-01T15:21:55.952Z,26.10
2023-03-01T15:24:23.445Z,20.40
2023-03-01T15:26:52.045Z,21.80
2023-03-01T15:29:19.608Z,24.30
2023-03-01T15:31:47.046Z,23.00
2023-03-01T15:34:14.615Z,22.10
2023-03-01T15:36:42.332Z,19.40
2023-03-01T15:39:09.916Z,17.50
2023-03-01T15:41:37.486Z,19.50
2023-03-01T15:44:05.262Z,21.00
2023-03-01T15:46:33.669Z,17.90
2023-03-01T15:49:01.594Z,19.70
2023-03-01T15:51:29.840Z,19.30
2023-03-01T15:53:58.939Z,17.50
2023-03-01T15:56:26.486Z,18.30
2023-03-01T15:58:54.002Z,20.50
2023-03-01T16:01:22.036Z,23.60
2023-03-01T16:03:49.688Z,21.40
2023-03-01T16:06:17.205Z,22.50
2023-03-01T16:08:44.679Z,24.70
2023-03-01T16:11:12.246Z,21.60
2023-03-01T16:13:39.838Z,22.40
2023-03-01T16:16:08.551Z,29.30
2023-03-01T16:18:36.188Z,29.50
2023-03-01T16:21:03.713Z,25.40
2023-03-01T16:23:31.315Z,27.50
2023-03-01T16:25:58.887Z,28.10
2023-03-01T16:28:29.252Z,40.80
2023-03-01T16:30:56.942Z,30.60
2023-03-01T16:33:31.862Z,20.90
2023-03-01T16:36:03.145Z,26.60
2023-03-01T16:38:30.820Z,26.50
2023-03-01T16:40:58.362Z,26.90
2023-03-01T16:43:26.127Z,24.10
2023-03-01T16:45:54.066Z,31.20
2023-03-01T16:48:21.848Z,33.60
2023-03-01T16:50:49.302Z,33.80
2023-03-01T16:53:16.800Z,35.10
2023-03-01T16:55:46.447Z,38.40
2023-03-01T16:58:16.422Z,37.70
2023-03-01T17:00:43.952Z,37.60
2023-03-01T17:03:12.037Z,36.40
2023-03-01T17:05:39.606Z,34.20
2023-03-01T17:08:08.970Z,36.00
2023-03-01T17:10:36.603Z,34.40
2023-03-01T17:13:04.680Z,42.20
2023-03-01T17:15:32.263Z,38.10
2023-03-01T17:17:59.800Z,43.10
2023-03-01T17:20:27.277Z,37.90
2023-03-01T17:22:54.854Z,42.10
2023-03-01T17:25:22.613Z,43.70
2023-03-01T17:27:50.307Z,47.20
2023-03-01T17:30:18.014Z,47.80
2023-03-01T17:32:45.633Z,54.00
2023-03-01T17:35:13.230Z,55.70
2023-03-01T17:37:46.475Z,57.90
2023-03-01T17:40:14.390Z,62.40
2023-03-01T17:42:42.068Z,55.80
2023-03-01T17:45:09.858Z,54.10
2023-03-01T17:47:37.883Z,43.80
2023-03-01T17:50:06.465Z,45.70
2023-03-01T17:52:34.069Z,41.30
2023-03-01T17:55:01.640Z,38.60
2023-03-01T17:57:29.188Z,38.70
2023-03-01T17:59:57.000Z,44.70
2023-03-01T18:02:26.519Z,43.40
2023-03-01T18:04:55.577Z,47.30
2023-03-01T18:07:23.455Z,48.00
2023-03-01T18:09:51.323Z,50.40
2023-03-01T18:12:19.063Z,50.40
2023-03-01T18:14:48.404Z,49.30
2023-03-01T18:17:16.178Z,52.20
2023-03-01T18:19:44.363Z,43.20
2023-03-01T18:22:12.159Z,47.30
2023-03-01T18:24:39.758Z,55.00
2023-03-01T18:27:10.386Z,59.80
2023-03-01T18:29:38.117Z,49.70
2023-03-01T18:32:05.756Z,48.90
2023-03-01T18:34:35.392Z,73.00
2023-03-01T18:37:10.434Z,87.70
2023-03-01T18:39:38.924Z,98.40
2023-03-01T18:42:08.114Z,78.50
2023-03-01T18:44:36.681Z,99.40
2023-03-01T18:47:04.178Z,125.80
2023-03-01T18:49:33.070Z,76.00
2023-03-01T18:52:00.846Z,115.20
2023-03-01T18:54:28.431Z,132.20
2023-03-01T18:56:56.524Z,127.50
2023-03-01T18:59:24.272Z,151.10
2023-03-01T19:01:51.874Z,136.60
2023-03-01T19:04:19.498Z,138.70
2023-03-01T19:06:47.091Z,119.80
2023-03-01T19:09:15.659Z,112.00
2023-03-01T19:11:43.215Z,117.00
2023-03-01T19:14:13.047Z,126.60
2023-03-01T19:16:40.683Z,90.30
2023-03-01T19:19:10.277Z,141.00
2023-03-01T19:21:38.062Z,130.90
2023-03-01T19:24:08.530Z,127.70
2023-03-01T19:26:36.542Z,155.90
2023-03-01T19:29:06.309Z,135.20
2023-03-01T19:31:35.298Z,148.10
2023-03-01T19:34:10.999Z,147.10
2023-03-01T19:36:39.179Z,123.90
2023-03-01T19:39:06.757Z,111.10
2023-03-01T19:41:34.581Z,130.60
2023-03-01T19:44:06.131Z,77.20
2023-03-01T19:46:35.874Z,111.20
2023-03-01T19:49:03.745Z,149.00
2023-03-01T19:51:33.581Z,173.50
2023-03-01T19:54:02.010Z,182.40
2023-03-01T19:56:30.248Z,159.70
2023-03-01T19:59:01.319Z,140.70
2023-03-01T20:01:29.891Z,136.50
2023-03-01T20:03:58.013Z,131.20
2023-03-01T20:06:25.854Z,125.40
2023-03-01T20:08:56.525Z,136.50
2023-03-01T20:11:24.742Z,120.80
2023-03-01T20:13:52.914Z,123.80
2023-03-01T20:16:21.078Z,133.70
2023-03-01T20:18:48.804Z,106.10
2023-03-01T20:21:24.179Z,94.70
2023-03-01T20:23:53.841Z,93.10
2023-03-01T20:26:21.484Z,99.00
2023-03-01T20:28:49.146Z,102.60
2023-03-01T20:31:17.174Z,91.60
2023-03-01T20:33:44.901Z,95.80
2023-03-01T20:36:12.787Z,79.90
2023-03-01T20:38:40.735Z,87.40
2023-03-01T20:41:08.255Z,101.00
2023-03-01T20:43:35.885Z,107.90
2023-03-01T20:46:03.575Z,121.90
2023-03-01T20:48:31.217Z,90.20
2023-03-01T20:51:01.733Z,78.40
2023-03-01T20:53:30.878Z,83.70
2023-03-01T20:55:59.083Z,76.10
2023-03-01T20:58:26.647Z,67.70
2023-03-01T21:00:55.478Z,81.70
2023-03-01T21:03:23.001Z,87.30
2023-03-01T21:05:50.538Z,102.00
2023-03-01T21:08:18.146Z,78.20
2023-03-01T21:10:45.630Z,83.80
2023-03-01T21:13:13.205Z,101.90
2023-03-01T21:15:41.428Z,99.90
2023-03-01T21:18:09.516Z,102.80
2023-03-01T21:20:42.684Z,111.20
2023-03-01T21:23:10.202Z,110.20
2023-03-01T21:25:37.696Z,109.00
2023-03-01T21:28:05.207Z,127.50
2023-03-01T21:30:32.688Z,111.90
2023-03-01T21:33:00.382Z,97.10
2023-03-01T21:35:27.921Z,94.10
2023-03-01T21:37:55.502Z,96.20
2023-03-01T21:40:22.989Z,115.80
2023-03-01T21:42:50.545Z,129.90
2023-03-01T21:45:17.993Z,155.60
2023-03-01T21:47:45.663Z,152.90
2023-03-01T21:50:13.247Z,139.00
2023-03-01T21:52:41.321Z,146.20
2023-03-01T21:55:09.212Z,163.60
2023-03-01T21:57:43.680Z,160.80
2023-03-01T22:00:12.951Z,171.30
2023-03-01T22:02:40.515Z,186.70
2023-03-01T22:05:08.177Z,133.70
2023-03-01T22:07:35.894Z,127.70
2023-03-01T22:10:03.514Z,162.90
2023-03-01T22:12:31.129Z,123.50
2023-03-01T22:14:59.222Z,125.30
2023-03-01T22:17:26.766Z,119.60
2023-03-01T22:19:54.318Z,91.30
2023-03-01T22:22:21.856Z,106.30
2023-03-01T22:24:49.538Z,122.90
2023-03-01T22:27:17.055Z,131.10
2023-03-01T22:29:44.512Z,107.90
2023-03-01T22:32:12.282Z,115.60
2023-03-01T22:34:40.081Z,118.10
2023-03-01T22:37:07.576Z,129.10
2023-03-01T22:39:35.014Z,118.10
2023-03-01T22:42:02.687Z,122.60
2023-03-01T22:44:30.162Z,99.30
2023-03-01T22:46:57.639Z,122.70
2023-03-01T22:49:25.295Z,127.40
2023-03-01T22:51:53.314Z,121.40
2023-03-01T22:54:20.886Z,122.20
2023-03-01T22:56:48.469Z,120.40
2023-03-01T22:59:16.005Z,134.60
2023-03-01T23:01:46.374Z,141.20
2023-03-01T23:04:14.805Z,184.80
2023-03-01T23:06:53.673Z,187.80
2023-03-01T23:09:21.461Z,156.00
2023-03-01T23:11:48.988Z,162.10
2023-03-01T23:14:16.811Z,158.90
2023-03-01T23:16:44.356Z,163.50
2023-03-01T23:19:11.896Z,173.40
2023-03-01T23:21:44.244Z,166.50
2023-03-01T23:24:11.825Z,461.60
2023-03-01T23:26:40.414Z,178.90
2023-03-01T23:29:07.916Z,162.30
2023-03-01T23:31:35.420Z,144.50
2023-03-01T23:34:03.034Z,145.30
2023-03-01T23:36:31.374Z,143.90
2023-03-01T23:38:59.102Z,147.60
2023-03-01T23:41:26.631Z,131.90
2023-03-01T23:43:54.190Z,113.60
2023-03-01T23:46:22.046Z,126.10
2023-03-01T23:48:49.611Z,115.70
2023-03-01T23:51:17.751Z,131.70
2023-03-01T23:53:54.318Z,123.90
2023-03-01T23:56:26.158Z,123.70
2023-03-01T23:58:53.710Z,125.00
